Time;durP1;ratioP1;P1;durP2;ratioP2;P2;SDS_P1;SDS_P2;PMS_P1;PMS_P2;Temp;Humidity;BMP_temperature;BMP_pressure;BME280_temperature;BME280_humidity;BME280_pressure;Samples;Min_cycle;Max_cycle;Signal;HPM_P1;HPM_P2
2021/11/28 00:01:49;;;;;;;36.45;20.88;;;;;;;2.38;100.00;98724.34;5033910;28;20048;-75
2021/11/28 00:04:16;;;;;;;32.58;21.20;;;;;;;2.37;100.00;98715.72;5045799;28;20645;-77
2021/11/28 00:07:02;;;;;;;32.45;20.95;;;;;;;2.39;100.00;98723.44;5049728;28;20098;-75
2021/11/28 00:14:38;;;;;;;34.92;21.65;;;;;;;2.40;100.00;98744.13;5030414;28;20040;-75
2021/11/28 00:17:06;;;;;;;32.75;21.70;;;;;;;2.44;100.00;98739.59;5054146;28;20147;-76
2021/11/28 00:19:33;;;;;;;31.85;21.33;;;;;;;2.37;100.00;98736.47;5050682;28;20051;-75
2021/11/28 00:22:00;;;;;;;34.00;21.10;;;;;;;2.33;100.00;98737.56;5036917;28;20043;-76
2021/11/28 00:24:36;;;;;;;31.02;20.60;;;;;;;2.22;100.00;98730.38;5052413;28;20036;-76
2021/11/28 00:27:04;;;;;;;31.73;20.38;;;;;;;2.18;100.00;98739.25;5055597;28;20226;-75
2021/11/28 00:29:33;;;;;;;32.20;20.90;;;;;;;2.10;100.00;98738.84;5020583;28;20036;-75
2021/11/28 00:32:00;;;;;;;35.45;20.80;;;;;;;2.08;100.00;98730.31;5048742;28;20127;-76
2021/11/28 00:34:27;;;;;;;34.05;19.83;;;;;;;2.05;100.00;98734.81;5038686;28;20084;-77
2021/11/28 00:36:55;;;;;;;27.95;19.25;;;;;;;2.02;100.00;98731.47;5053916;28;20506;-74
2021/11/28 00:39:22;;;;;;;34.72;20.27;;;;;;;2.00;100.00;98730.72;5051484;28;20123;-75
2021/11/28 00:41:49;;;;;;;33.17;21.23;;;;;;;2.02;100.00;98731.47;5067246;28;20036;-74
2021/11/28 00:44:28;;;;;;;31.05;20.17;;;;;;;1.98;100.00;98731.72;5047896;28;20087;-75
2021/11/28 00:46:56;;;;;;;33.92;22.15;;;;;;;1.94;100.00;98725.03;5053464;28;20047;-76
2021/11/28 00:49:25;;;;;;;28.63;19.25;;;;;;;1.93;100.00;98728.53;5032523;28;20047;-75
2021/11/28 00:51:56;;;;;;;33.30;20.77;;;;;;;1.93;100.00;98731.13;5053627;28;20059;-77
2021/11/28 00:54:27;;;;;;;32.75;19.33;;;;;;;2.00;100.00;98729.88;5044087;28;20793;-75
2021/11/28 00:56:55;;;;;;;31.00;19.10;;;;;;;1.99;100.00;98725.63;5051365;28;20064;-76
2021/11/28 00:59:22;;;;;;;28.40;18.55;;;;;;;2.04;100.00;98731.41;5047332;28;20040;-75
2021/11/28 01:01:50;;;;;;;27.88;18.60;;;;;;;2.02;100.00;98722.84;5052613;28;20047;-75
2021/11/28 01:04:17;;;;;;;29.08;18.95;;;;;;;1.99;100.00;98725.63;5067463;28;22294;-75
2021/11/28 01:06:45;;;;;;;28.00;18.05;;;;;;;1.99;100.00;98729.06;5053493;28;20049;-74
2021/11/28 01:09:14;;;;;;;25.73;17.23;;;;;;;1.98;100.00;98727.38;5067923;28;20048;-76
2021/11/28 01:11:41;;;;;;;29.30;18.67;;;;;;;1.96;100.00;98723.19;5019710;28;20131;-74
2021/11/28 01:14:09;;;;;;;27.75;18.27;;;;;;;1.96;100.00;98721.41;5066942;28;20426;-76
2021/11/28 01:16:38;;;;;;;29.15;17.63;;;;;;;1.96;100.00;98716.22;5052148;28;20558;-75
2021/11/28 01:19:05;;;;;;;26.33;16.90;;;;;;;1.98;100.00;98710.94;5050013;28;20048;-76
2021/11/28 01:21:32;;;;;;;27.42;16.52;;;;;;;1.98;100.00;98719.59;5050787;28;20296;-76
2021/11/28 01:24:00;;;;;;;29.98;18.02;;;;;;;2.00;100.00;98716.91;5034271;28;20044;-75
2021/11/28 01:26:30;;;;;;;25.80;17.20;;;;;;;2.00;100.00;98719.50;5051147;28;20388;-75
2021/11/28 01:28:59;;;;;;;23.83;17.05;;;;;;;2.03;100.00;98725.38;5047904;28;20061;-78
2021/11/28 01:31:26;;;;;;;23.55;16.67;;;;;;;2.04;100.00;98728.81;5029504;28;20044;-77
2021/11/28 01:33:53;;;;;;;25.92;16.77;;;;;;;2.08;100.00;98724.28;5050949;28;20053;-74
2021/11/28 01:36:20;;;;;;;28.80;18.00;;;;;;;2.08;100.00;98729.47;5060403;28;20053;-75
2021/11/28 01:38:48;;;;;;;27.35;17.10;;;;;;;2.09;100.00;98733.75;5032034;28;20036;-75
2021/11/28 01:41:15;;;;;;;29.60;17.55;;;;;;;2.12;100.00;98741.38;5033174;28;20143;-76
2021/11/28 01:43:43;;;;;;;29.73;17.70;;;;;;;2.12;100.00;98751.75;5051713;28;20070;-76
2021/11/28 01:46:10;;;;;;;23.90;16.52;;;;;;;2.16;100.00;98758.44;5047120;28;20049;-75
2021/11/28 01:48:38;;;;;;;30.67;18.27;;;;;;;2.20;100.00;98765.13;5032035;28;20044;-75
2021/11/28 01:51:06;;;;;;;24.73;16.55;;;;;;;2.18;100.00;98767.00;5050052;28;20443;-74
2021/11/28 01:53:34;;;;;;;24.42;15.45;;;;;;;2.17;100.00;98770.50;5034723;28;20045;-76
2021/11/28 01:56:03;;;;;;;22.67;15.65;;;;;;;2.18;100.00;98764.38;5066845;28;20072;-74
2021/11/28 01:58:31;;;;;;;24.70;16.40;;;;;;;2.14;100.00;98760.28;5014165;28;20045;-75
2021/11/28 02:01:02;;;;;;;21.73;15.52;;;;;;;2.18;100.00;98765.22;5065268;28;20046;-73
2021/11/28 02:03:30;;;;;;;24.60;15.60;;;;;;;2.17;100.00;98778.28;5044931;28;20120;-76
2021/11/28 02:05:58;;;;;;;22.55;15.80;;;;;;;2.24;100.00;98777.03;5049643;28;20072;-74
2021/11/28 02:08:27;;;;;;;28.08;15.82;;;;;;;2.23;100.00;98773.59;5037699;28;20040;-74
2021/11/28 02:10:54;;;;;;;23.15;15.75;;;;;;;2.33;100.00;98776.53;5050057;28;20076;-75
2021/11/28 02:13:22;;;;;;;25.77;15.95;;;;;;;2.28;100.00;98781.13;5050138;28;20127;-75
2021/11/28 02:15:51;;;;;;;24.63;15.85;;;;;;;2.28;100.00;98781.97;5033241;28;20100;-74
2021/11/28 02:18:21;;;;;;;23.73;15.20;;;;;;;2.32;100.00;98780.03;5050483;28;20044;-77
2021/11/28 02:20:54;;;;;;;23.75;14.68;;;;;;;2.33;100.00;98783.47;5033275;28;20140;-75
2021/11/28 02:23:21;;;;;;;24.00;14.98;;;;;;;2.33;100.00;98778.28;5049730;28;20143;-76
2021/11/28 02:25:50;;;;;;;21.92;14.95;;;;;;;2.47;100.00;98789.59;5049184;28;20218;-76
2021/11/28 02:28:17;;;;;;;23.00;15.75;;;;;;;2.37;100.00;98780.63;5049525;28;20056;-75
2021/11/28 02:30:45;;;;;;;21.92;15.55;;;;;;;2.32;100.00;98776.63;5032560;28;20418;-76
2021/11/28 02:33:12;;;;;;;22.73;15.18;;;;;;;2.28;100.00;98774.19;5048063;28;20093;-78
2021/11/28 02:35:41;;;;;;;23.10;15.70;;;;;;;2.27;100.00;98772.50;5049561;28;20051;-75
2021/11/28 02:38:09;;;;;;;20.80;14.93;;;;;;;2.28;100.00;98766.38;5046080;28;20071;-76
2021/11/28 02:40:40;;;;;;;20.77;15.55;;;;;;;2.29;100.00;98769.81;5049469;28;20212;-76
2021/11/28 02:43:08;;;;;;;23.05;16.30;;;;;;;2.27;100.00;98767.31;5032983;28;20041;-76
2021/11/28 02:45:36;;;;;;;22.75;15.18;;;;;;;2.25;100.00;98760.53;5032454;28;20036;-74
2021/11/28 02:48:09;;;;;;;19.95;15.43;;;;;;;2.28;100.00;98747.38;5047427;28;20053;-77
2021/11/28 02:50:45;;;;;;;20.10;14.43;;;;;;;2.32;100.00;98748.06;5032416;28;20143;-75
2021/11/28 02:53:13;;;;;;;20.77;15.32;;;;;;;2.36;100.00;98755.59;5045545;28;20057;-77
2021/11/28 02:55:49;;;;;;;19.35;13.70;;;;;;;2.42;100.00;98751.81;5026794;28;20036;-75
2021/11/28 02:58:19;;;;;;;19.75;14.43;;;;;;;2.42;100.00;98749.22;5047389;28;20062;-76
2021/11/28 03:00:52;;;;;;;21.38;14.68;;;;;;;2.41;100.00;98750.16;5064544;28;20075;-76
2021/11/28 03:03:20;;;;;;;22.60;14.85;;;;;;;2.39;100.00;98747.63;5048346;28;20055;-75
2021/11/28 03:05:47;;;;;;;19.65;14.02;;;;;;;2.42;100.00;98754.41;5032571;28;20443;-76
2021/11/28 03:08:15;;;;;;;23.30;15.57;;;;;;;2.47;100.00;98757.59;5048254;28;20483;-75
2021/11/28 03:10:48;;;;;;;20.27;14.05;;;;;;;2.46;100.00;98761.94;5023530;28;20075;-75
2021/11/28 03:13:18;;;;;;;18.10;13.32;;;;;;;2.39;100.00;98749.41;5048501;28;20435;-77
2021/11/28 03:15:46;;;;;;;23.85;15.43;;;;;;;2.37;100.00;98746.88;5047679;28;20467;-76
2021/11/28 03:18:16;;;;;;;19.90;15.05;;;;;;;2.39;100.00;98758.03;5048690;28;20326;-75
2021/11/28 03:20:43;;;;;;;22.20;14.07;;;;;;;2.41;100.00;98760.53;5027873;28;20118;-75
2021/11/28 03:23:13;;;;;;;19.98;14.30;;;;;;;2.38;100.00;98755.50;5032717;28;20040;-75
2021/11/28 03:25:41;;;;;;;18.45;13.73;;;;;;;2.40;100.00;98757.09;5048966;28;20067;-75
2021/11/28 03:28:16;;;;;;;18.98;12.65;;;;;;;2.43;100.00;98758.66;5049436;28;20242;-75
2021/11/28 03:30:46;;;;;;;17.67;12.97;;;;;;;2.45;100.00;98760.28;5041554;28;20051;-76
2021/11/28 03:33:13;;;;;;;17.75;13.40;;;;;;;2.47;100.00;98753.22;5048762;28;20071;-77
2021/11/28 03:35:40;;;;;;;17.42;12.93;;;;;;;2.45;100.00;98759.44;5032038;28;20044;-75
2021/11/28 03:38:09;;;;;;;17.02;13.30;;;;;;;2.56;100.00;98766.63;5028205;28;20083;-76
2021/11/28 03:40:38;;;;;;;18.08;13.75;;;;;;;2.50;100.00;98755.66;5062830;28;20425;-75
2021/11/28 03:43:05;;;;;;;17.20;12.05;;;;;;;2.44;100.00;98766.41;5066731;28;20055;-75
2021/11/28 03:45:34;;;;;;;16.25;12.38;;;;;;;2.42;100.00;98770.00;5048237;28;20266;-75
2021/11/28 03:48:01;;;;;;;17.98;11.57;;;;;;;2.46;100.00;98769.72;5046896;28;20118;-74
2021/11/28 03:50:28;;;;;;;15.02;11.75;;;;;;;2.43;100.00;98776.84;5046804;28;20051;-75
2021/11/28 03:52:56;;;;;;;17.75;12.13;;;;;;;2.38;100.00;98779.69;5050160;28;20043;-75
2021/11/28 03:55:24;;;;;;;19.08;13.43;;;;;;;2.36;100.00;98781.56;5046431;28;20359;-76
2021/11/28 03:57:51;;;;;;;17.10;11.48;;;;;;;2.39;100.00;98780.56;5049942;28;20487;-74
2021/11/28 04:00:19;;;;;;;16.88;12.13;;;;;;;2.37;100.00;98777.19;5046236;28;20135;-75
2021/11/28 04:02:47;;;;;;;16.85;11.32;;;;;;;2.42;100.00;98782.97;5046220;28;20052;-75
2021/11/28 04:05:14;;;;;;;17.17;12.00;;;;;;;2.36;100.00;98786.75;5029998;28;20049;-75
2021/11/28 04:07:42;;;;;;;21.15;12.48;;;;;;;2.27;100.00;98788.09;5050171;28;20131;-74
2021/11/28 04:10:09;;;;;;;16.27;12.43;;;;;;;2.26;100.00;98790.78;5045839;28;20048;-75
2021/11/28 04:12:37;;;;;;;16.90;12.25;;;;;;;2.18;100.00;98798.97;5065642;28;20393;-76
2021/11/28 04:15:05;;;;;;;16.65;12.70;;;;;;;2.22;100.00;98795.28;5033793;28;20049;-76
2021/11/28 04:17:33;;;;;;;17.45;13.40;;;;;;;2.19;100.00;98792.03;5048461;28;20451;-76
2021/11/28 04:20:00;;;;;;;18.83;13.32;;;;;;;2.17;100.00;98794.72;5027910;28;20559;-76
2021/11/28 04:22:27;;;;;;;16.80;12.48;;;;;;;2.03;100.00;98782.47;5016294;28;20044;-75
2021/11/28 04:24:54;;;;;;;19.00;13.13;;;;;;;1.95;100.00;98786.38;5064148;28;20499;-75
2021/11/28 04:27:22;;;;;;;20.42;13.30;;;;;;;1.83;100.00;98790.47;5048438;28;20048;-75
2021/11/28 04:29:49;;;;;;;20.70;13.70;;;;;;;1.77;100.00;98795.97;5044465;28;20131;-75
2021/11/28 04:32:17;;;;;;;19.25;13.93;;;;;;;1.62;100.00;98781.19;5048798;28;20124;-77
2021/11/28 04:34:45;;;;;;;20.55;14.45;;;;;;;1.47;100.00;98780.25;5062811;28;20048;-76
2021/11/28 04:37:12;;;;;;;18.30;13.95;;;;;;;1.38;100.00;98768.56;5048906;28;20054;-75
2021/11/28 04:39:39;;;;;;;19.00;13.85;;;;;;;1.27;100.00;98763.97;5059271;28;20059;-75
2021/11/28 04:42:07;;;;;;;19.48;13.55;;;;;;;1.20;100.00;98772.09;5048532;28;20041;-74
2021/11/28 04:44:34;;;;;;;18.90;14.50;;;;;;;1.15;100.00;98774.09;5045943;28;20424;-76
2021/11/28 04:47:02;;;;;;;20.13;15.10;;;;;;;1.14;100.00;98778.44;5048747;28;20109;-75
2021/11/28 04:49:31;;;;;;;22.40;13.30;;;;;;;1.35;100.00;98781.72;5045687;28;21589;-74
2021/11/28 04:51:58;;;;;;;20.55;13.10;;;;;;;1.17;100.00;98782.63;5063950;28;20054;-75
2021/11/28 04:54:25;;;;;;;19.73;13.68;;;;;;;1.14;100.00;98791.41;5043515;28;20045;-76
2021/11/28 04:56:52;;;;;;;22.63;15.00;;;;;;;1.05;100.00;98797.03;5030028;28;20144;-76
2021/11/28 04:59:20;;;;;;;22.73;15.00;;;;;;;0.96;100.00;98794.91;5065451;28;20055;-77
2021/11/28 05:01:47;;;;;;;22.35;14.30;;;;;;;0.98;100.00;98796.50;5069009;28;20051;-75
2021/11/28 05:04:15;;;;;;;20.73;14.52;;;;;;;0.98;100.00;98799.06;5059089;28;20056;-78
2021/11/28 05:06:42;;;;;;;21.33;15.27;;;;;;;0.90;100.00;98813.31;5037705;28;20052;-76
2021/11/28 05:09:09;;;;;;;19.30;14.68;;;;;;;0.89;100.00;98812.47;5049805;28;20044;-75
2021/11/28 05:11:37;;;;;;;24.48;14.32;;;;;;;0.86;100.00;98819.59;5052019;28;20135;-75
2021/11/28 05:14:04;;;;;;;23.35;14.45;;;;;;;0.85;100.00;98823.91;5047163;28;20048;-77
2021/11/28 05:16:31;;;;;;;20.17;14.52;;;;;;;0.89;100.00;98820.25;5069979;28;20351;-75
2021/11/28 05:18:58;;;;;;;20.42;14.55;;;;;;;0.79;100.00;98813.00;5050744;28;20127;-73
2021/11/28 05:21:26;;;;;;;20.25;14.40;;;;;;;0.74;100.00;98821.00;5049776;28;20102;-75
2021/11/28 05:23:53;;;;;;;19.60;14.02;;;;;;;0.70;100.00;98820.31;5034446;28;20044;-74
2021/11/28 05:26:22;;;;;;;20.65;14.27;;;;;;;0.70;100.00;98822.06;5051080;28;20127;-75
2021/11/28 05:28:49;;;;;;;18.73;13.95;;;;;;;0.59;100.00;98819.16;5035413;28;20324;-75
2021/11/28 05:31:18;;;;;;;21.40;14.50;;;;;;;0.57;100.00;98821.78;5015795;28;20056;-75
2021/11/28 05:33:47;;;;;;;21.40;14.75;;;;;;;0.61;100.00;98819.91;5069279;28;20044;-75
2021/11/28 05:36:16;;;;;;;20.02;14.45;;;;;;;0.46;100.00;98817.13;5051402;28;20541;-75
2021/11/28 05:38:44;;;;;;;20.83;15.02;;;;;;;0.40;100.00;98821.72;5062545;28;20501;-75
2021/11/28 05:41:11;;;;;;;21.08;14.93;;;;;;;0.38;100.00;98814.06;5047501;28;20443;-75
2021/11/28 05:43:42;;;;;;;20.00;14.73;;;;;;;0.34;100.00;98815.09;5034813;28;20084;-76
2021/11/28 05:46:10;;;;;;;21.52;14.93;;;;;;;0.33;100.00;98816.00;5066685;28;20048;-76
2021/11/28 05:48:37;;;;;;;22.55;15.57;;;;;;;0.30;100.00;98813.56;5047999;28;20059;-76
2021/11/28 05:51:05;;;;;;;21.05;16.05;;;;;;;0.29;100.00;98821.41;5034174;28;20548;-74
2021/11/28 05:53:32;;;;;;;24.08;16.02;;;;;;;0.25;100.00;98820.69;5034386;28;20491;-75
2021/11/28 05:56:00;;;;;;;21.77;15.40;;;;;;;0.17;100.00;98820.19;5017253;28;20051;-74
2021/11/28 05:58:28;;;;;;;21.35;15.27;;;;;;;0.22;100.00;98820.81;5033600;28;20120;-75
2021/11/28 06:00:55;;;;;;;23.25;15.48;;;;;;;0.16;100.00;98821.94;5033407;28;20382;-76
2021/11/28 06:03:23;;;;;;;20.50;15.02;;;;;;;0.12;100.00;98817.81;5033901;28;20562;-75
2021/11/28 06:05:50;;;;;;;21.90;16.08;;;;;;;0.08;100.00;98815.44;5049422;28;20046;-75
2021/11/28 06:08:18;;;;;;;23.25;16.58;;;;;;;0.09;100.00;98812.81;5049452;28;20071;-76
2021/11/28 06:10:45;;;;;;;20.80;14.77;;;;;;;0.07;100.00;98814.59;5017054;28;20045;-74
2021/11/28 06:13:12;;;;;;;30.33;16.88;;;;;;;0.05;100.00;98823.38;5031757;28;20041;-77
2021/11/28 06:15:40;;;;;;;21.55;15.55;;;;;;;0.03;100.00;98823.41;5049776;28;20482;-75
2021/11/28 06:18:10;;;;;;;22.25;15.43;;;;;;;0.06;100.00;98817.28;5068204;28;20052;-74
2021/11/28 06:20:38;;;;;;;25.67;16.70;;;;;;;-0.07;100.00;98823.00;5046821;28;20148;-76
2021/11/28 06:23:05;;;;;;;24.65;15.65;;;;;;;-0.01;100.00;98816.69;5034153;28;20045;-75
2021/11/28 06:25:33;;;;;;;22.80;16.48;;;;;;;-0.08;100.00;98823.91;5033000;28;20072;-75
2021/11/28 06:28:20;;;;;;;25.02;16.65;;;;;;;-0.17;100.00;98834.66;5052546;28;20054;-74
2021/11/28 06:30:47;;;;;;;23.50;16.48;;;;;;;-0.21;100.00;98846.03;5030205;28;20038;-75
2021/11/28 06:33:15;;;;;;;26.73;17.80;;;;;;;-0.20;100.00;98847.72;5049912;28;20129;-75
2021/11/28 06:35:43;;;;;;;22.15;16.60;;;;;;;-0.24;100.00;98841.00;5033163;28;20136;-74
2021/11/28 06:38:10;;;;;;;24.75;15.57;;;;;;;-0.28;100.00;98836.84;5046405;28;20138;-76
2021/11/28 06:40:37;;;;;;;26.27;17.38;;;;;;;-0.27;100.00;98839.41;5035576;28;20072;-75
2021/11/28 06:43:11;;;;;;;23.10;15.80;;;;;;;-0.29;100.00;98848.09;5049123;28;20055;-76
2021/11/28 06:45:38;;;;;;;26.50;17.98;;;;;;;-0.32;100.00;98853.41;5067240;28;20045;-75
2021/11/28 06:48:06;;;;;;;24.50;15.80;;;;;;;-0.35;100.00;98862.16;5066190;28;20048;-77
2021/11/28 06:50:33;;;;;;;23.55;16.75;;;;;;;-0.37;100.00;98860.53;5032064;28;20055;-75
2021/11/28 06:53:03;;;;;;;23.33;16.83;;;;;;;-0.36;100.00;98857.03;5051158;28;20072;-76
2021/11/28 06:55:32;;;;;;;23.00;16.05;;;;;;;-0.36;100.00;98859.59;5044216;28;20053;-76
2021/11/28 06:57:59;;;;;;;26.77;16.60;;;;;;;-0.38;100.00;98875.19;5048123;28;20048;-76
2021/11/28 07:00:26;;;;;;;21.73;15.35;;;;;;;-0.36;100.00;98877.69;5046738;28;20494;-74
2021/11/28 07:02:54;;;;;;;24.30;16.58;;;;;;;-0.36;100.00;98863.06;5049070;28;20365;-75
2021/11/28 07:05:21;;;;;;;24.17;16.50;;;;;;;-0.31;100.00;98865.44;5046689;28;20353;-75
2021/11/28 07:07:48;;;;;;;30.13;16.60;;;;;;;-0.32;100.00;98863.75;5050767;28;20572;-75
2021/11/28 07:10:15;;;;;;;26.13;16.23;;;;;;;-0.31;100.00;98862.88;5030048;28;20514;-76
2021/11/28 07:12:44;;;;;;;24.58;16.50;;;;;;;-0.33;100.00;98862.91;5049441;28;20062;-77
2021/11/28 07:15:12;;;;;;;23.90;16.77;;;;;;;-0.35;100.00;98866.47;5029883;28;20045;-75
2021/11/28 07:17:40;;;;;;;22.30;15.63;;;;;;;-0.35;100.00;98862.16;5040240;28;20048;-74
2021/11/28 07:20:07;;;;;;;25.08;15.75;;;;;;;-0.26;100.00;98868.66;5061613;28;20378;-75
2021/11/28 07:22:35;;;;;;;24.50;15.38;;;;;;;-0.34;100.00;98866.41;5068187;28;20079;-74
2021/11/28 07:25:03;;;;;;;24.50;15.70;;;;;;;-0.30;100.00;98856.78;5030893;28;20045;-75
2021/11/28 07:27:31;;;;;;;23.00;15.50;;;;;;;-0.27;100.00;98864.38;5050465;28;20049;-75
2021/11/28 07:30:00;;;;;;;22.73;15.55;;;;;;;-0.21;100.00;98878.81;5029368;28;20101;-76
2021/11/28 07:32:28;;;;;;;22.70;15.75;;;;;;;-0.19;100.00;98882.16;5046596;28;20482;-76
2021/11/28 07:34:55;;;;;;;24.85;15.48;;;;;;;-0.16;100.00;98872.53;5046684;28;20128;-75
2021/11/28 07:37:23;;;;;;;22.05;14.57;;;;;;;-0.14;100.00;98875.88;5063794;28;20055;-76
2021/11/28 07:39:50;;;;;;;25.65;15.52;;;;;;;-0.10;100.00;98872.25;5045161;28;20364;-75
2021/11/28 07:42:17;;;;;;;23.63;15.07;;;;;;;0.01;100.00;98871.81;5049935;28;20071;-77
2021/11/28 07:44:44;;;;;;;27.90;16.33;;;;;;;0.01;100.00;98873.56;5046288;28;20045;-76
2021/11/28 07:47:12;;;;;;;28.42;16.67;;;;;;;0.04;100.00;98871.66;5048453;28;20127;-75
2021/11/28 07:49:39;;;;;;;20.63;15.25;;;;;;;0.09;100.00;98876.63;5062993;28;20120;-75
2021/11/28 07:52:06;;;;;;;20.92;15.57;;;;;;;0.16;100.00;98878.88;5049200;28;20136;-75
2021/11/28 07:54:34;;;;;;;21.20;14.50;;;;;;;0.17;100.00;98883.13;5064710;28;20045;-74
2021/11/28 07:57:02;;;;;;;22.77;14.63;;;;;;;0.22;100.00;98886.34;5033826;28;20040;-74
2021/11/28 07:59:30;;;;;;;21.48;14.40;;;;;;;0.32;100.00;98891.16;5029766;28;20040;-76
2021/11/28 08:01:57;;;;;;;22.33;15.15;;;;;;;0.38;100.00;98894.28;5016744;28;20566;-74
2021/11/28 08:04:25;;;;;;;21.45;13.77;;;;;;;0.40;100.00;98896.81;5030360;28;20074;-75
2021/11/28 08:06:53;;;;;;;19.83;13.73;;;;;;;0.44;100.00;98895.75;5033463;28;20052;-74
2021/11/28 08:09:20;;;;;;;22.02;14.55;;;;;;;0.45;100.00;98892.25;5064155;28;20135;-75
2021/11/28 08:11:47;;;;;;;20.33;13.73;;;;;;;0.49;100.00;98902.41;5070445;28;20075;-75
2021/11/28 08:14:15;;;;;;;20.13;14.00;;;;;;;0.64;100.00;98903.47;5024205;28;20037;-76
2021/11/28 08:16:42;;;;;;;19.58;13.98;;;;;;;0.73;100.00;98905.63;5065601;28;20444;-75
2021/11/28 08:19:09;;;;;;;18.25;13.52;;;;;;;0.71;100.00;98904.00;5031765;28;20060;-77
2021/11/28 08:21:37;;;;;;;23.65;13.20;;;;;;;0.78;100.00;98904.59;5033003;28;20051;-75
2021/11/28 08:24:05;;;;;;;20.77;14.43;;;;;;;0.93;100.00;98915.06;5027259;28;20353;-77
2021/11/28 08:26:35;;;;;;;20.88;13.98;;;;;;;1.06;100.00;98914.47;5033113;28;20413;-76
2021/11/28 08:29:05;;;;;;;21.88;13.02;;;;;;;0.99;100.00;98908.75;5047668;28;20083;-76
2021/11/28 08:31:34;;;;;;;18.25;12.63;;;;;;;0.99;100.00;98908.75;5048248;28;20144;-75
2021/11/28 08:34:01;;;;;;;16.67;12.25;;;;;;;1.17;100.00;98897.53;5050903;28;20135;-77
2021/11/28 08:36:28;;;;;;;20.73;12.98;;;;;;;1.27;100.00;98905.69;5052758;28;20498;-76
2021/11/28 08:38:56;;;;;;;15.52;11.48;;;;;;;1.37;100.00;98906.06;5046077;28;20131;-75
2021/11/28 08:41:27;;;;;;;17.35;12.57;;;;;;;1.34;100.00;98906.22;5051235;28;20132;-75
2021/11/28 08:43:56;;;;;;;16.40;12.10;;;;;;;1.47;100.00;98909.88;5085864;28;20427;-74
2021/11/28 08:46:24;;;;;;;15.85;12.00;;;;;;;1.50;100.00;98908.00;5030756;28;20127;-75
2021/11/28 08:48:53;;;;;;;18.42;12.05;;;;;;;1.58;100.00;98904.19;5051672;28;20131;-74
2021/11/28 08:51:21;;;;;;;22.35;11.77;;;;;;;1.59;100.00;98908.47;5051460;28;20131;-75
2021/11/28 08:53:49;;;;;;;19.67;12.10;;;;;;;1.74;100.00;98911.09;5052186;28;20315;-76
2021/11/28 08:56:16;;;;;;;18.17;12.63;;;;;;;1.84;100.00;98914.06;5048228;28;20039;-76
2021/11/28 08:58:44;;;;;;;19.02;12.57;;;;;;;2.01;100.00;98908.03;5049611;28;20044;-76
2021/11/28 09:01:11;;;;;;;18.38;11.40;;;;;;;2.07;100.00;98910.31;5049507;28;20415;-75
2021/11/28 09:03:38;;;;;;;18.23;11.18;;;;;;;2.05;100.00;98913.91;5050451;28;20511;-75
2021/11/28 09:06:07;;;;;;;20.38;11.73;;;;;;;2.12;100.00;98920.47;5050509;28;20044;-75
2021/11/28 09:08:37;;;;;;;18.90;11.23;;;;;;;2.32;98.85;98925.47;5052441;28;20136;-76
2021/11/28 09:11:07;;;;;;;19.23;10.85;;;;;;;2.42;97.19;98931.00;5053512;28;20033;-75
2021/11/28 09:13:35;;;;;;;20.65;11.80;;;;;;;2.48;97.59;98926.34;5048499;28;20059;-75
2021/11/28 09:16:03;;;;;;;17.55;11.00;;;;;;;2.63;97.09;98921.25;5050890;28;20154;-75
2021/11/28 09:19:10;;;;;;;17.23;10.43;;;;;;;2.79;96.60;98914.28;5051406;28;20132;-76
2021/11/28 09:21:26;;;;;;;17.98;10.48;;;;;;;2.88;95.44;98915.53;5037750;28;20622;-75
2021/11/28 09:26:44;;;;;;;18.02;10.80;;;;;;;3.22;94.29;98922.31;5040824;28;20086;-75
2021/11/28 09:29:11;;;;;;;19.42;10.63;;;;;;;3.32;92.83;98914.84;5049793;28;20068;-77
2021/11/28 09:31:38;;;;;;;18.67;11.23;;;;;;;3.53;92.56;98916.22;5017094;28;20110;-76
2021/11/28 09:34:06;;;;;;;21.55;11.10;;;;;;;3.67;92.63;98908.44;5049987;28;20139;-77
2021/11/28 09:36:33;;;;;;;18.23;10.70;;;;;;;3.83;90.86;98910.16;5035699;28;20139;-75
2021/11/28 09:39:01;;;;;;;21.42;10.35;;;;;;;3.95;89.49;98912.03;5062437;28;20053;-75
2021/11/28 09:41:51;;;;;;;15.57;10.00;;;;;;;4.14;88.62;98912.59;5038814;28;20123;-75
2021/11/28 09:44:19;;;;;;;19.70;10.10;;;;;;;4.01;88.09;98911.69;5048015;28;20068;-76
2021/11/28 09:46:47;;;;;;;18.33;11.32;;;;;;;4.18;87.60;98893.28;5034277;28;20127;-75
2021/11/28 09:49:14;;;;;;;14.57;9.55;;;;;;;4.18;86.21;98893.28;5049373;28;20455;-75
2021/11/28 09:51:46;;;;;;;15.38;10.23;;;;;;;4.27;86.16;98884.06;5036010;28;20072;-76
2021/11/28 09:54:15;;;;;;;17.92;9.30;;;;;;;4.22;85.62;98894.75;5064940;28;20072;-75
2021/11/28 09:56:43;;;;;;;15.20;9.70;;;;;;;4.20;85.65;98886.22;5068022;28;20044;-75
2021/11/28 09:59:10;;;;;;;15.93;9.82;;;;;;;4.35;85.60;98886.22;5032575;28;20090;-73
2021/11/28 10:01:39;;;;;;;14.75;9.73;;;;;;;4.45;83.77;98880.31;5018756;28;20159;-75
2021/11/28 10:04:07;;;;;;;14.77;9.48;;;;;;;4.43;82.81;98879.59;5063745;28;20052;-75
2021/11/28 10:06:35;;;;;;;16.15;8.35;;;;;;;4.23;83.24;98874.75;5035602;28;20693;-75
2021/11/28 10:09:07;;;;;;;14.23;8.93;;;;;;;4.26;83.45;98877.19;5050260;28;20453;-76
2021/11/28 10:11:40;;;;;;;13.35;9.38;;;;;;;4.29;84.39;98890.88;5018365;28;20164;-74
2021/11/28 10:14:09;;;;;;;13.55;8.60;;;;;;;4.64;83.93;98887.00;5064593;28;20045;-77
2021/11/28 10:16:37;;;;;;;16.80;9.48;;;;;;;4.72;83.15;98879.53;5034388;28;20086;-74
2021/11/28 10:19:07;;;;;;;18.88;10.38;;;;;;;4.78;82.80;98882.63;5049778;28;20051;-76
2021/11/28 10:21:35;;;;;;;20.75;9.55;;;;;;;4.87;81.61;98880.38;5051217;28;20036;-75
2021/11/28 10:24:07;;;;;;;14.15;9.43;;;;;;;4.92;80.55;98875.69;5048387;28;20041;-76
2021/11/28 10:26:38;;;;;;;17.48;8.55;;;;;;;5.05;80.60;98884.41;5051013;28;20391;-75
2021/11/28 10:29:15;;;;;;;17.02;8.73;;;;;;;5.22;80.01;98872.88;5033293;28;20147;-76
2021/11/28 10:31:49;;;;;;;16.58;8.98;;;;;;;5.34;79.38;98872.91;5026519;28;20071;-74
2021/11/28 10:34:25;;;;;;;14.60;8.25;;;;;;;5.19;78.47;98866.09;5075413;28;20376;-75
2021/11/28 10:37:20;;;;;;;14.35;7.82;;;;;;;5.35;78.85;98860.69;5042609;28;20052;-75
2021/11/28 10:39:58;;;;;;;13.40;8.18;;;;;;;5.48;78.45;98861.56;5030107;28;20158;-75
2021/11/28 10:42:28;;;;;;;16.02;9.85;;;;;;;5.62;77.61;98860.66;5050078;28;20044;-74
2021/11/28 10:45:10;;;;;;;18.55;8.88;;;;;;;5.62;76.82;98857.22;5075583;28;20440;-75
2021/11/28 10:47:50;;;;;;;12.02;8.07;;;;;;;5.47;75.66;98865.13;5063746;28;20420;-75
2021/11/28 10:50:29;;;;;;;13.82;8.35;;;;;;;5.57;74.88;98858.34;5019807;28;20458;-80
2021/11/28 10:53:10;;;;;;;14.00;7.55;;;;;;;5.84;74.28;98862.66;5025766;28;20110;-77
2021/11/28 10:55:40;;;;;;;17.38;8.20;;;;;;;5.89;74.14;98859.75;5038302;28;20213;-74
2021/11/28 10:58:17;;;;;;;16.50;8.13;;;;;;;6.01;73.22;98861.56;5048922;28;20032;-77
2021/11/28 11:00:50;;;;;;;14.52;7.65;;;;;;;5.95;72.86;98868.03;5028096;28;20060;-77
2021/11/28 11:03:22;;;;;;;22.10;8.73;;;;;;;6.19;73.41;98862.06;5059534;28;20129;-77
2021/11/28 11:05:51;;;;;;;19.90;9.35;;;;;;;6.62;73.89;98864.28;5074872;28;20109;-76
2021/11/28 11:08:24;;;;;;;16.13;7.53;;;;;;;6.65;71.14;98859.69;5064174;28;20140;-77
2021/11/28 11:11:07;;;;;;;19.13;8.13;;;;;;;7.20;69.20;98866.16;5046262;28;20147;-77
2021/11/28 11:14:01;;;;;;;13.38;7.57;;;;;;;7.27;68.39;98864.78;5060035;28;20042;-76
2021/11/28 11:16:42;;;;;;;14.55;8.10;;;;;;;7.73;68.24;98865.75;5065961;28;20036;-75
2021/11/28 11:19:31;;;;;;;14.80;7.82;;;;;;;8.06;66.90;98854.50;5045543;28;20064;-77
2021/11/28 11:22:25;;;;;;;12.10;7.97;;;;;;;8.27;64.69;98858.09;5064737;28;20131;-75
2021/11/28 11:24:57;;;;;;;15.27;8.02;;;;;;;7.99;65.33;98859.38;5053267;28;20044;-76
2021/11/28 11:27:25;;;;;;;14.13;8.00;;;;;;;8.21;64.36;98857.75;5043673;28;20086;-75
2021/11/28 11:30:00;;;;;;;16.05;7.78;;;;;;;8.19;63.87;98854.38;5045438;28;20044;-74
2021/11/28 11:32:48;;;;;;;16.33;8.68;;;;;;;8.88;62.32;98861.16;5063935;28;20052;-75
2021/11/28 11:35:21;;;;;;;14.27;7.82;;;;;;;9.37;60.80;98859.00;5044598;28;20039;-75
2021/11/28 11:37:51;;;;;;;18.58;8.18;;;;;;;9.30;59.24;98863.91;5028746;28;20049;-75